sensor_id;sensor_type;location;lat;lon;timestamp;temperature;humidity
20610;DHT22;10463;52.378;9.688;2022-11-20T00:00:16;21.00;23.10
20610;DHT22;10463;52.378;9.688;2022-11-20T00:03:03;21.10;23.20
20610;DHT22;10463;52.378;9.688;2022-11-20T00:05:48;21.10;23.20
20610;DHT22;10463;52.378;9.688;2022-11-20T00:08:33;21.00;23.10
20610;DHT22;10463;52.378;9.688;2022-11-20T00:11:21;21.00;23.10
20610;DHT22;10463;52.378;9.688;2022-11-20T00:14:06;21.10;23.20
20610;DHT22;10463;52.378;9.688;2022-11-20T00:16:50;21.10;23.80
20610;DHT22;10463;52.378;9.688;2022-11-20T00:19:36;21.10;23.20
20610;DHT22;10463;52.378;9.688;2022-11-20T00:22:22;21.10;23.20
20610;DHT22;10463;52.378;9.688;2022-11-20T00:25:07;21.10;23.30
20610;DHT22;10463;52.378;9.688;2022-11-20T00:27:52;21.00;23.20
20610;DHT22;10463;52.378;9.688;2022-11-20T00:30:37;21.00;23.20
20610;DHT22;10463;52.378;9.688;2022-11-20T00:33:22;21.00;23.20
20610;DHT22;10463;52.378;9.688;2022-11-20T00:36:10;21.00;23.20
20610;DHT22;10463;52.378;9.688;2022-11-20T00:38:57;21.00;23.20
20610;DHT22;10463;52.378;9.688;2022-11-20T00:41:42;21.00;23.20
20610;DHT22;10463;52.378;9.688;2022-11-20T00:44:26;21.00;23.20
20610;DHT22;10463;52.378;9.688;2022-11-20T00:47:11;21.00;23.30
20610;DHT22;10463;52.378;9.688;2022-11-20T00:49:56;21.00;23.30
20610;DHT22;10463;52.378;9.688;2022-11-20T00:52:42;21.00;23.30
20610;DHT22;10463;52.378;9.688;2022-11-20T00:55:27;21.00;23.30
20610;DHT22;10463;52.378;9.688;2022-11-20T00:58:11;21.00;23.30
20610;DHT22;10463;52.378;9.688;2022-11-20T01:01:00;21.00;23.30
20610;DHT22;10463;52.378;9.688;2022-11-20T01:03:48;21.00;23.30
20610;DHT22;10463;52.378;9.688;2022-11-20T01:06:35;21.00;23.30
20610;DHT22;10463;52.378;9.688;2022-11-20T01:09:22;20.90;23.80
20610;DHT22;10463;52.378;9.688;2022-11-20T01:12:07;21.00;23.40
20610;DHT22;10463;52.378;9.688;2022-11-20T01:14:51;21.00;23.30
20610;DHT22;10463;52.378;9.688;2022-11-20T01:17:36;20.90;23.30
20610;DHT22;10463;52.378;9.688;2022-11-20T01:20:21;20.90;23.30
20610;DHT22;10463;52.378;9.688;2022-11-20T01:23:05;20.90;23.20
20610;DHT22;10463;52.378;9.688;2022-11-20T01:25:52;20.90;23.70
20610;DHT22;10463;52.378;9.688;2022-11-20T01:28:37;20.90;23.10
20610;DHT22;10463;52.378;9.688;2022-11-20T01:31:24;20.90;23.10
20610;DHT22;10463;52.378;9.688;2022-11-20T01:34:12;20.90;23.10
20610;DHT22;10463;52.378;9.688;2022-11-20T01:36:57;20.90;23.10
20610;DHT22;10463;52.378;9.688;2022-11-20T01:39:41;20.90;23.20
20610;DHT22;10463;52.378;9.688;2022-11-20T01:42:28;20.90;23.10
20610;DHT22;10463;52.378;9.688;2022-11-20T01:46:13;20.90;23.20
20610;DHT22;10463;52.378;9.688;2022-11-20T01:49:02;20.90;23.20
20610;DHT22;10463;52.378;9.688;2022-11-20T01:51:51;20.90;23.20
20610;DHT22;10463;52.378;9.688;2022-11-20T01:54:43;20.90;23.20
20610;DHT22;10463;52.378;9.688;2022-11-20T01:57:31;20.90;23.20
20610;DHT22;10463;52.378;9.688;2022-11-20T02:00:19;20.90;23.20
20610;DHT22;10463;52.378;9.688;2022-11-20T02:03:08;20.90;23.70
20610;DHT22;10463;52.378;9.688;2022-11-20T02:06:01;20.90;23.20
20610;DHT22;10463;52.378;9.688;2022-11-20T02:08:48;20.90;23.20
20610;DHT22;10463;52.378;9.688;2022-11-20T02:11:33;20.90;23.20
20610;DHT22;10463;52.378;9.688;2022-11-20T02:14:19;20.80;23.10
20610;DHT22;10463;52.378;9.688;2022-11-20T02:17:05;20.80;23.30
20610;DHT22;10463;52.378;9.688;2022-11-20T02:19:50;20.80;23.30
20610;DHT22;10463;52.378;9.688;2022-11-20T02:22:40;20.80;23.30
20610;DHT22;10463;52.378;9.688;2022-11-20T02:25:29;20.80;23.30
20610;DHT22;10463;52.378;9.688;2022-11-20T02:28:16;20.80;23.10
20610;DHT22;10463;52.378;9.688;2022-11-20T02:31:01;20.80;23.10
20610;DHT22;10463;52.378;9.688;2022-11-20T02:33:46;20.80;22.90
20610;DHT22;10463;52.378;9.688;2022-11-20T02:36:32;20.80;22.90
20610;DHT22;10463;52.378;9.688;2022-11-20T02:39:19;20.80;22.80
20610;DHT22;10463;52.378;9.688;2022-11-20T02:42:06;20.80;22.70
20610;DHT22;10463;52.378;9.688;2022-11-20T02:44:51;20.80;22.60
20610;DHT22;10463;52.378;9.688;2022-11-20T02:47:35;20.70;22.50
20610;DHT22;10463;52.378;9.688;2022-11-20T02:50:20;20.70;22.40
20610;DHT22;10463;52.378;9.688;2022-11-20T02:53:05;20.70;22.30
20610;DHT22;10463;52.378;9.688;2022-11-20T02:55:50;20.70;22.30
20610;DHT22;10463;52.378;9.688;2022-11-20T02:58:36;20.70;22.10
20610;DHT22;10463;52.378;9.688;2022-11-20T03:01:21;20.70;22.10
20610;DHT22;10463;52.378;9.688;2022-11-20T03:04:06;20.70;22.10
20610;DHT22;10463;52.378;9.688;2022-11-20T03:06:50;20.60;21.90
20610;DHT22;10463;52.378;9.688;2022-11-20T03:09:35;20.60;21.90
20610;DHT22;10463;52.378;9.688;2022-11-20T03:12:20;20.60;21.90
20610;DHT22;10463;52.378;9.688;2022-11-20T03:15:08;20.50;21.80
20610;DHT22;10463;52.378;9.688;2022-11-20T03:17:54;20.50;21.70
20610;DHT22;10463;52.378;9.688;2022-11-20T03:20:39;20.50;21.70
20610;DHT22;10463;52.378;9.688;2022-11-20T03:23:24;20.50;21.70
20610;DHT22;10463;52.378;9.688;2022-11-20T03:26:13;20.40;21.60
20610;DHT22;10463;52.378;9.688;2022-11-20T03:29:00;20.40;21.60
20610;DHT22;10463;52.378;9.688;2022-11-20T03:31:47;20.40;21.60
20610;DHT22;10463;52.378;9.688;2022-11-20T03:34:32;20.40;21.50
20610;DHT22;10463;52.378;9.688;2022-11-20T03:37:17;20.30;21.50
20610;DHT22;10463;52.378;9.688;2022-11-20T03:40:03;20.30;21.50
20610;DHT22;10463;52.378;9.688;2022-11-20T03:42:47;20.30;21.50
20610;DHT22;10463;52.378;9.688;2022-11-20T03:45:32;20.30;21.50
20610;DHT22;10463;52.378;9.688;2022-11-20T03:48:18;20.20;21.40
20610;DHT22;10463;52.378;9.688;2022-11-20T03:51:11;20.20;21.40
20610;DHT22;10463;52.378;9.688;2022-11-20T03:53:58;20.20;21.40
20610;DHT22;10463;52.378;9.688;2022-11-20T03:56:43;20.10;21.40
20610;DHT22;10463;52.378;9.688;2022-11-20T03:59:28;20.10;21.40
20610;DHT22;10463;52.378;9.688;2022-11-20T04:02:12;20.10;21.40
20610;DHT22;10463;52.378;9.688;2022-11-20T04:04:58;20.10;21.40
20610;DHT22;10463;52.378;9.688;2022-11-20T04:07:43;20.00;21.40
20610;DHT22;10463;52.378;9.688;2022-11-20T04:10:28;20.00;21.40
20610;DHT22;10463;52.378;9.688;2022-11-20T04:13:12;19.90;21.30
20610;DHT22;10463;52.378;9.688;2022-11-20T04:15:57;19.90;21.30
20610;DHT22;10463;52.378;9.688;2022-11-20T04:18:42;19.90;21.30
20610;DHT22;10463;52.378;9.688;2022-11-20T04:21:29;19.90;21.30
20610;DHT22;10463;52.378;9.688;2022-11-20T04:24:14;19.90;21.30
20610;DHT22;10463;52.378;9.688;2022-11-20T04:26:58;19.80;21.20
20610;DHT22;10463;52.378;9.688;2022-11-20T04:29:43;19.80;21.30
20610;DHT22;10463;52.378;9.688;2022-11-20T04:32:28;19.80;21.30
20610;DHT22;10463;52.378;9.688;2022-11-20T04:35:13;19.80;21.30
20610;DHT22;10463;52.378;9.688;2022-11-20T04:37:59;19.70;21.20
20610;DHT22;10463;52.378;9.688;2022-11-20T04:40:44;19.70;21.20
20610;DHT22;10463;52.378;9.688;2022-11-20T04:43:29;19.70;21.70
20610;DHT22;10463;52.378;9.688;2022-11-20T04:46:14;19.60;21.10
20610;DHT22;10463;52.378;9.688;2022-11-20T04:48:59;19.60;21.10
20610;DHT22;10463;52.378;9.688;2022-11-20T04:51:44;19.60;21.10
20610;DHT22;10463;52.378;9.688;2022-11-20T04:54:30;19.60;21.10
20610;DHT22;10463;52.378;9.688;2022-11-20T04:57:14;19.60;21.10
20610;DHT22;10463;52.378;9.688;2022-11-20T04:59:59;19.50;21.00
20610;DHT22;10463;52.378;9.688;2022-11-20T05:02:44;19.50;21.00
20610;DHT22;10463;52.378;9.688;2022-11-20T05:05:28;19.50;21.10
20610;DHT22;10463;52.378;9.688;2022-11-20T05:08:13;19.40;21.00
20610;DHT22;10463;52.378;9.688;2022-11-20T05:11:02;19.40;21.00
20610;DHT22;10463;52.378;9.688;2022-11-20T05:13:48;19.40;21.60
20610;DHT22;10463;52.378;9.688;2022-11-20T05:16:34;19.40;21.00
20610;DHT22;10463;52.378;9.688;2022-11-20T05:19:20;19.40;21.10
20610;DHT22;10463;52.378;9.688;2022-11-20T05:22:05;19.40;21.00
20610;DHT22;10463;52.378;9.688;2022-11-20T05:24:49;19.30;21.00
20610;DHT22;10463;52.378;9.688;2022-11-20T05:27:35;19.30;21.00
20610;DHT22;10463;52.378;9.688;2022-11-20T05:30:20;19.30;21.00
20610;DHT22;10463;52.378;9.688;2022-11-20T05:33:05;19.30;21.00
20610;DHT22;10463;52.378;9.688;2022-11-20T05:35:49;19.30;21.00
20610;DHT22;10463;52.378;9.688;2022-11-20T05:38:34;19.30;21.10
20610;DHT22;10463;52.378;9.688;2022-11-20T05:41:20;19.20;21.00
20610;DHT22;10463;52.378;9.688;2022-11-20T05:44:06;19.20;21.00
20610;DHT22;10463;52.378;9.688;2022-11-20T05:46:51;19.20;21.00
20610;DHT22;10463;52.378;9.688;2022-11-20T05:49:36;19.20;21.00
20610;DHT22;10463;52.378;9.688;2022-11-20T05:52:20;19.20;21.00
20610;DHT22;10463;52.378;9.688;2022-11-20T05:55:07;19.10;21.00
20610;DHT22;10463;52.378;9.688;2022-11-20T05:57:52;19.10;21.00
20610;DHT22;10463;52.378;9.688;2022-11-20T06:00:39;19.10;21.00
20610;DHT22;10463;52.378;9.688;2022-11-20T06:03:24;19.10;21.00
20610;DHT22;10463;52.378;9.688;2022-11-20T06:06:08;19.10;21.50
20610;DHT22;10463;52.378;9.688;2022-11-20T06:08:54;19.00;20.90
20610;DHT22;10463;52.378;9.688;2022-11-20T06:11:39;19.00;20.90
20610;DHT22;10463;52.378;9.688;2022-11-20T06:14:24;19.00;20.90
20610;DHT22;10463;52.378;9.688;2022-11-20T06:17:10;19.00;21.00
20610;DHT22;10463;52.378;9.688;2022-11-20T06:19:54;18.90;20.90
20610;DHT22;10463;52.378;9.688;2022-11-20T06:22:39;18.90;20.90
20610;DHT22;10463;52.378;9.688;2022-11-20T06:25:24;18.90;20.90
20610;DHT22;10463;52.378;9.688;2022-11-20T06:28:09;18.80;20.90
20610;DHT22;10463;52.378;9.688;2022-11-20T06:30:54;18.80;20.80
20610;DHT22;10463;52.378;9.688;2022-11-20T06:33:40;18.80;20.90
20610;DHT22;10463;52.378;9.688;2022-11-20T06:36:25;18.80;20.90
20610;DHT22;10463;52.378;9.688;2022-11-20T06:39:10;18.80;20.90
20610;DHT22;10463;52.378;9.688;2022-11-20T06:41:55;18.70;20.90
20610;DHT22;10463;52.378;9.688;2022-11-20T06:44:40;18.70;20.90
20610;DHT22;10463;52.378;9.688;2022-11-20T06:47:24;18.70;20.90
20610;DHT22;10463;52.378;9.688;2022-11-20T06:50:10;18.70;20.90
20610;DHT22;10463;52.378;9.688;2022-11-20T06:52:55;18.60;20.90
20610;DHT22;10463;52.378;9.688;2022-11-20T06:55:42;18.60;20.80
20610;DHT22;10463;52.378;9.688;2022-11-20T06:58:29;18.60;20.90
20610;DHT22;10463;52.378;9.688;2022-11-20T07:01:15;18.60;20.90
20610;DHT22;10463;52.378;9.688;2022-11-20T07:04:00;18.60;20.90
20610;DHT22;10463;52.378;9.688;2022-11-20T07:06:46;18.60;20.90
20610;DHT22;10463;52.378;9.688;2022-11-20T07:09:30;18.60;20.90
20610;DHT22;10463;52.378;9.688;2022-11-20T07:12:15;18.60;20.90
20610;DHT22;10463;52.378;9.688;2022-11-20T07:15:00;18.50;20.90
20610;DHT22;10463;52.378;9.688;2022-11-20T07:17:44;18.50;20.90
20610;DHT22;10463;52.378;9.688;2022-11-20T07:20:30;18.50;20.90
20610;DHT22;10463;52.378;9.688;2022-11-20T07:23:16;18.50;20.90
20610;DHT22;10463;52.378;9.688;2022-11-20T07:26:04;18.50;20.90
20610;DHT22;10463;52.378;9.688;2022-11-20T07:28:48;18.40;20.80
20610;DHT22;10463;52.378;9.688;2022-11-20T07:31:33;18.40;21.30
20610;DHT22;10463;52.378;9.688;2022-11-20T07:34:18;18.40;20.80
20610;DHT22;10463;52.378;9.688;2022-11-20T07:37:02;18.40;20.90
20610;DHT22;10463;52.378;9.688;2022-11-20T07:39:48;18.30;20.70
20610;DHT22;10463;52.378;9.688;2022-11-20T07:42:33;18.30;20.70
20610;DHT22;10463;52.378;9.688;2022-11-20T07:45:19;18.30;20.80
20610;DHT22;10463;52.378;9.688;2022-11-20T07:48:04;18.30;20.80
20610;DHT22;10463;52.378;9.688;2022-11-20T07:50:52;18.30;20.80
20610;DHT22;10463;52.378;9.688;2022-11-20T07:53:37;18.30;20.90
20610;DHT22;10463;52.378;9.688;2022-11-20T07:56:23;18.20;20.80
20610;DHT22;10463;52.378;9.688;2022-11-20T07:59:08;18.20;20.80
20610;DHT22;10463;52.378;9.688;2022-11-20T08:01:52;18.30;20.90
20610;DHT22;10463;52.378;9.688;2022-11-20T08:04:37;18.20;20.80
20610;DHT22;10463;52.378;9.688;2022-11-20T08:07:21;18.20;20.80
20610;DHT22;10463;52.378;9.688;2022-11-20T08:10:08;18.20;20.90
20610;DHT22;10463;52.378;9.688;2022-11-20T08:12:55;18.20;20.90
20610;DHT22;10463;52.378;9.688;2022-11-20T08:15:58;18.20;20.90
20610;DHT22;10463;52.378;9.688;2022-11-20T08:18:43;18.20;21.00
20610;DHT22;10463;52.378;9.688;2022-11-20T08:21:27;18.20;21.10
20610;DHT22;10463;52.378;9.688;2022-11-20T08:24:12;18.20;21.20
20610;DHT22;10463;52.378;9.688;2022-11-20T08:26:57;18.20;21.20
20610;DHT22;10463;52.378;9.688;2022-11-20T08:29:44;18.20;21.30
20610;DHT22;10463;52.378;9.688;2022-11-20T08:32:29;18.20;21.30
20610;DHT22;10463;52.378;9.688;2022-11-20T08:35:14;18.20;21.40
20610;DHT22;10463;52.378;9.688;2022-11-20T08:37:59;18.20;21.60
20610;DHT22;10463;52.378;9.688;2022-11-20T08:40:43;18.30;21.70
20610;DHT22;10463;52.378;9.688;2022-11-20T08:43:57;18.30;21.80
20610;DHT22;10463;52.378;9.688;2022-11-20T08:46:43;18.30;21.80
20610;DHT22;10463;52.378;9.688;2022-11-20T08:49:30;18.30;21.90
20610;DHT22;10463;52.378;9.688;2022-11-20T08:52:14;18.30;21.90
20610;DHT22;10463;52.378;9.688;2022-11-20T08:54:59;18.30;22.00
20610;DHT22;10463;52.378;9.688;2022-11-20T08:57:44;18.30;22.00
20610;DHT22;10463;52.378;9.688;2022-11-20T09:00:28;18.40;22.10
20610;DHT22;10463;52.378;9.688;2022-11-20T09:03:14;18.40;22.20
20610;DHT22;10463;52.378;9.688;2022-11-20T09:06:00;18.40;22.20
20610;DHT22;10463;52.378;9.688;2022-11-20T09:08:45;18.40;22.20
20610;DHT22;10463;52.378;9.688;2022-11-20T09:11:29;18.40;22.20
20610;DHT22;10463;52.378;9.688;2022-11-20T09:14:14;18.50;22.20
20610;DHT22;10463;52.378;9.688;2022-11-20T09:16:58;18.50;22.30
20610;DHT22;10463;52.378;9.688;2022-11-20T09:19:45;18.50;22.30
20610;DHT22;10463;52.378;9.688;2022-11-20T09:22:29;18.50;22.30
20610;DHT22;10463;52.378;9.688;2022-11-20T09:25:14;18.50;22.30
20610;DHT22;10463;52.378;9.688;2022-11-20T09:28:00;18.60;22.40
20610;DHT22;10463;52.378;9.688;2022-11-20T09:30:45;18.60;22.30
20610;DHT22;10463;52.378;9.688;2022-11-20T09:33:30;18.60;22.40
20610;DHT22;10463;52.378;9.688;2022-11-20T09:36:18;18.60;22.40
20610;DHT22;10463;52.378;9.688;2022-11-20T09:39:03;18.60;22.40
20610;DHT22;10463;52.378;9.688;2022-11-20T09:42:12;18.70;22.50
20610;DHT22;10463;52.378;9.688;2022-11-20T09:45:13;18.70;22.60
20610;DHT22;10463;52.378;9.688;2022-11-20T09:48:36;18.70;22.60
20610;DHT22;10463;52.378;9.688;2022-11-20T09:51:38;18.80;22.70
20610;DHT22;10463;52.378;9.688;2022-11-20T09:54:30;18.80;22.70
20610;DHT22;10463;52.378;9.688;2022-11-20T09:57:20;18.80;22.70
20610;DHT22;10463;52.378;9.688;2022-11-20T10:00:10;18.90;22.70
20610;DHT22;10463;52.378;9.688;2022-11-20T10:03:01;18.90;22.80
20610;DHT22;10463;52.378;9.688;2022-11-20T10:05:51;18.90;22.70
20610;DHT22;10463;52.378;9.688;2022-11-20T10:08:43;18.90;22.70
20610;DHT22;10463;52.378;9.688;2022-11-20T10:11:38;19.00;22.70
20610;DHT22;10463;52.378;9.688;2022-11-20T10:14:34;19.00;22.70
20610;DHT22;10463;52.378;9.688;2022-11-20T10:17:40;19.10;22.70
20610;DHT22;10463;52.378;9.688;2022-11-20T10:20:40;19.10;22.70
20610;DHT22;10463;52.378;9.688;2022-11-20T10:23:49;19.20;22.70
20610;DHT22;10463;52.378;9.688;2022-11-20T10:26:44;19.20;22.70
20610;DHT22;10463;52.378;9.688;2022-11-20T10:29:34;19.20;22.70
20610;DHT22;10463;52.378;9.688;2022-11-20T10:32:20;19.30;22.70
20610;DHT22;10463;52.378;9.688;2022-11-20T10:35:20;19.30;22.70
20610;DHT22;10463;52.378;9.688;2022-11-20T10:38:14;19.30;22.60
20610;DHT22;10463;52.378;9.688;2022-11-20T10:41:03;19.40;22.70
20610;DHT22;10463;52.378;9.688;2022-11-20T10:44:14;19.40;22.70
20610;DHT22;10463;52.378;9.688;2022-11-20T10:47:21;19.40;22.60
20610;DHT22;10463;52.378;9.688;2022-11-20T10:50:11;19.40;23.20
20610;DHT22;10463;52.378;9.688;2022-11-20T10:53:07;19.50;22.60
20610;DHT22;10463;52.378;9.688;2022-11-20T10:56:07;19.50;22.60
20610;DHT22;10463;52.378;9.688;2022-11-20T11:02:16;19.50;22.60
20610;DHT22;10463;52.378;9.688;2022-11-20T11:05:12;19.60;22.60
20610;DHT22;10463;52.378;9.688;2022-11-20T11:07:59;19.60;22.60
20610;DHT22;10463;52.378;9.688;2022-11-20T11:10:49;19.60;22.60
20610;DHT22;10463;52.378;9.688;2022-11-20T11:13:37;19.60;22.60
20610;DHT22;10463;52.378;9.688;2022-11-20T11:16:24;19.70;22.60
20610;DHT22;10463;52.378;9.688;2022-11-20T11:19:13;19.70;22.60
20610;DHT22;10463;52.378;9.688;2022-11-20T11:21:58;19.70;22.60
20610;DHT22;10463;52.378;9.688;2022-11-20T11:24:52;19.70;22.50
20610;DHT22;10463;52.378;9.688;2022-11-20T11:27:46;19.70;22.50
20610;DHT22;10463;52.378;9.688;2022-11-20T11:30:43;19.80;22.60
20610;DHT22;10463;52.378;9.688;2022-11-20T11:33:30;19.80;22.60
20610;DHT22;10463;52.378;9.688;2022-11-20T11:36:19;19.80;22.60
20610;DHT22;10463;52.378;9.688;2022-11-20T11:39:14;19.80;22.60
20610;DHT22;10463;52.378;9.688;2022-11-20T11:42:01;19.80;22.60
20610;DHT22;10463;52.378;9.688;2022-11-20T11:44:47;19.90;22.60
20610;DHT22;10463;52.378;9.688;2022-11-20T11:47:54;19.90;22.60
20610;DHT22;10463;52.378;9.688;2022-11-20T11:50:49;19.90;22.60
20610;DHT22;10463;52.378;9.688;2022-11-20T11:53:36;19.90;22.60
20610;DHT22;10463;52.378;9.688;2022-11-20T11:56:23;19.90;22.50
20610;DHT22;10463;52.378;9.688;2022-11-20T11:59:15;19.90;22.50
20610;DHT22;10463;52.378;9.688;2022-11-20T12:02:05;20.00;22.60
20610;DHT22;10463;52.378;9.688;2022-11-20T12:05:14;20.00;22.60
20610;DHT22;10463;52.378;9.688;2022-11-20T12:08:05;20.00;22.60
20610;DHT22;10463;52.378;9.688;2022-11-20T12:10:59;20.00;22.60
20610;DHT22;10463;52.378;9.688;2022-11-20T12:13:52;20.10;22.70
20610;DHT22;10463;52.378;9.688;2022-11-20T12:16:39;20.10;22.60
20610;DHT22;10463;52.378;9.688;2022-11-20T12:19:24;20.10;22.60
20610;DHT22;10463;52.378;9.688;2022-11-20T12:22:21;20.10;22.60
20610;DHT22;10463;52.378;9.688;2022-11-20T12:25:14;20.10;22.60
20610;DHT22;10463;52.378;9.688;2022-11-20T12:31:44;20.10;22.60
20610;DHT22;10463;52.378;9.688;2022-11-20T12:34:47;20.10;22.60
20610;DHT22;10463;52.378;9.688;2022-11-20T12:37:45;20.20;22.60
20610;DHT22;10463;52.378;9.688;2022-11-20T12:40:40;20.20;22.60
20610;DHT22;10463;52.378;9.688;2022-11-20T12:43:29;20.20;22.60
20610;DHT22;10463;52.378;9.688;2022-11-20T12:46:38;20.20;22.60
20610;DHT22;10463;52.378;9.688;2022-11-20T12:49:37;20.20;22.60
20610;DHT22;10463;52.378;9.688;2022-11-20T12:52:40;20.20;22.60
20610;DHT22;10463;52.378;9.688;2022-11-20T12:55:34;20.20;22.70
20610;DHT22;10463;52.378;9.688;2022-11-20T12:58:27;20.20;22.70
20610;DHT22;10463;52.378;9.688;2022-11-20T13:01:25;20.30;22.80
20610;DHT22;10463;52.378;9.688;2022-11-20T13:04:48;20.20;22.70
20610;DHT22;10463;52.378;9.688;2022-11-20T13:07:40;20.30;22.90
20610;DHT22;10463;52.378;9.688;2022-11-20T13:10:33;20.30;22.90
20610;DHT22;10463;52.378;9.688;2022-11-20T13:13:29;20.30;23.40
20610;DHT22;10463;52.378;9.688;2022-11-20T13:16:23;20.40;22.90
20610;DHT22;10463;52.378;9.688;2022-11-20T13:19:13;20.40;22.80
20610;DHT22;10463;52.378;9.688;2022-11-20T13:21:58;20.40;22.80
20610;DHT22;10463;52.378;9.688;2022-11-20T13:24:51;20.40;22.80
20610;DHT22;10463;52.378;9.688;2022-11-20T13:27:47;20.40;22.70
20610;DHT22;10463;52.378;9.688;2022-11-20T13:30:33;20.50;22.80
20610;DHT22;10463;52.378;9.688;2022-11-20T13:33:29;20.50;23.30
20610;DHT22;10463;52.378;9.688;2022-11-20T13:36:23;20.50;22.70
20610;DHT22;10463;52.378;9.688;2022-11-20T13:39:08;20.50;22.70
20610;DHT22;10463;52.378;9.688;2022-11-20T13:42:00;20.50;22.70
20610;DHT22;10463;52.378;9.688;2022-11-20T13:44:51;20.50;22.70
20610;DHT22;10463;52.378;9.688;2022-11-20T13:47:36;20.50;22.70
20610;DHT22;10463;52.378;9.688;2022-11-20T13:50:43;20.50;22.70
20610;DHT22;10463;52.378;9.688;2022-11-20T13:53:56;20.60;22.80
20610;DHT22;10463;52.378;9.688;2022-11-20T13:56:54;20.60;22.80
20610;DHT22;10463;52.378;9.688;2022-11-20T13:59:56;20.60;22.80
20610;DHT22;10463;52.378;9.688;2022-11-20T14:02:41;20.60;22.80
20610;DHT22;10463;52.378;9.688;2022-11-20T14:05:27;20.60;22.80
20610;DHT22;10463;52.378;9.688;2022-11-20T14:08:27;20.60;22.70
20610;DHT22;10463;52.378;9.688;2022-11-20T14:11:17;20.70;22.80
20610;DHT22;10463;52.378;9.688;2022-11-20T14:14:05;20.70;22.80
20610;DHT22;10463;52.378;9.688;2022-11-20T14:17:07;20.70;22.80
20610;DHT22;10463;52.378;9.688;2022-11-20T14:19:53;20.70;22.80
20610;DHT22;10463;52.378;9.688;2022-11-20T14:22:39;20.70;22.80
20610;DHT22;10463;52.378;9.688;2022-11-20T14:25:25;20.70;23.30
20610;DHT22;10463;52.378;9.688;2022-11-20T14:28:24;20.70;22.80
20610;DHT22;10463;52.378;9.688;2022-11-20T14:31:18;20.70;22.80
20610;DHT22;10463;52.378;9.688;2022-11-20T14:34:15;20.70;22.80
20610;DHT22;10463;52.378;9.688;2022-11-20T14:37:04;20.70;22.80
20610;DHT22;10463;52.378;9.688;2022-11-20T14:39:53;20.70;22.80
20610;DHT22;10463;52.378;9.688;2022-11-20T14:42:43;20.70;22.80
20610;DHT22;10463;52.378;9.688;2022-11-20T14:45:29;20.70;22.80
20610;DHT22;10463;52.378;9.688;2022-11-20T14:48:14;20.70;22.80
20610;DHT22;10463;52.378;9.688;2022-11-20T14:51:01;20.70;22.80
20610;DHT22;10463;52.378;9.688;2022-11-20T14:53:46;20.70;22.70
20610;DHT22;10463;52.378;9.688;2022-11-20T14:56:30;20.70;22.70
20610;DHT22;10463;52.378;9.688;2022-11-20T14:59:23;20.70;22.70
20610;DHT22;10463;52.378;9.688;2022-11-20T15:02:10;20.80;22.80
20610;DHT22;10463;52.378;9.688;2022-11-20T15:04:59;20.80;22.80
20610;DHT22;10463;52.378;9.688;2022-11-20T15:07:49;20.70;22.70
20610;DHT22;10463;52.378;9.688;2022-11-20T15:10:34;20.80;23.30
20610;DHT22;10463;52.378;9.688;2022-11-20T15:13:26;20.80;22.70
20610;DHT22;10463;52.378;9.688;2022-11-20T15:16:18;20.80;22.70
20610;DHT22;10463;52.378;9.688;2022-11-20T15:19:15;20.80;22.70
20610;DHT22;10463;52.378;9.688;2022-11-20T15:22:02;20.80;22.70
20610;DHT22;10463;52.378;9.688;2022-11-20T15:24:47;20.80;22.70
20610;DHT22;10463;52.378;9.688;2022-11-20T15:27:32;20.80;23.00
20610;DHT22;10463;52.378;9.688;2022-11-20T15:30:19;20.80;22.70
20610;DHT22;10463;52.378;9.688;2022-11-20T15:33:07;20.80;22.70
20610;DHT22;10463;52.378;9.688;2022-11-20T15:35:51;20.80;22.60
20610;DHT22;10463;52.378;9.688;2022-11-20T15:38:36;20.80;23.10
20610;DHT22;10463;52.378;9.688;2022-11-20T15:41:23;20.80;22.60
20610;DHT22;10463;52.378;9.688;2022-11-20T15:44:07;20.80;22.60
20610;DHT22;10463;52.378;9.688;2022-11-20T15:46:52;20.80;23.10
20610;DHT22;10463;52.378;9.688;2022-11-20T15:49:37;20.80;22.50
20610;DHT22;10463;52.378;9.688;2022-11-20T15:52:22;20.80;23.10
20610;DHT22;10463;52.378;9.688;2022-11-20T15:55:09;20.80;22.50
20610;DHT22;10463;52.378;9.688;2022-11-20T15:57:58;20.80;22.50
20610;DHT22;10463;52.378;9.688;2022-11-20T16:00:43;20.80;22.50
20610;DHT22;10463;52.378;9.688;2022-11-20T16:03:29;20.80;22.50
20610;DHT22;10463;52.378;9.688;2022-11-20T16:06:14;20.80;22.60
20610;DHT22;10463;52.378;9.688;2022-11-20T16:09:00;20.80;22.60
20610;DHT22;10463;52.378;9.688;2022-11-20T16:11:45;20.80;22.70
20610;DHT22;10463;52.378;9.688;2022-11-20T16:14:31;20.80;22.70
20610;DHT22;10463;52.378;9.688;2022-11-20T16:17:34;20.80;22.70
20610;DHT22;10463;52.378;9.688;2022-11-20T16:20:28;20.70;22.70
20610;DHT22;10463;52.378;9.688;2022-11-20T16:23:14;20.80;22.80
20610;DHT22;10463;52.378;9.688;2022-11-20T16:26:09;20.70;23.20
20610;DHT22;10463;52.378;9.688;2022-11-20T16:28:54;20.70;22.80
20610;DHT22;10463;52.378;9.688;2022-11-20T16:31:40;20.70;22.80
20610;DHT22;10463;52.378;9.688;2022-11-20T16:34:25;20.80;22.90
20610;DHT22;10463;52.378;9.688;2022-11-20T16:37:09;20.80;22.90
20610;DHT22;10463;52.378;9.688;2022-11-20T16:39:54;20.80;22.90
20610;DHT22;10463;52.378;9.688;2022-11-20T16:42:40;20.80;22.90
20610;DHT22;10463;52.378;9.688;2022-11-20T16:45:25;20.70;22.90
20610;DHT22;10463;52.378;9.688;2022-11-20T16:48:14;20.80;23.00
20610;DHT22;10463;52.378;9.688;2022-11-20T16:50:58;20.80;23.00
20610;DHT22;10463;52.378;9.688;2022-11-20T16:53:43;20.80;23.50
20610;DHT22;10463;52.378;9.688;2022-11-20T16:56:28;20.80;22.90
20610;DHT22;10463;52.378;9.688;2022-11-20T16:59:12;20.80;22.90
20610;DHT22;10463;52.378;9.688;2022-11-20T17:01:57;20.80;22.90
20610;DHT22;10463;52.378;9.688;2022-11-20T17:04:43;20.80;22.90
20610;DHT22;10463;52.378;9.688;2022-11-20T17:07:28;20.80;22.90
20610;DHT22;10463;52.378;9.688;2022-11-20T17:10:13;20.80;22.90
20610;DHT22;10463;52.378;9.688;2022-11-20T17:12:58;20.80;22.90
20610;DHT22;10463;52.378;9.688;2022-11-20T17:15:43;20.80;23.40
20610;DHT22;10463;52.378;9.688;2022-11-20T17:18:28;20.80;22.90
20610;DHT22;10463;52.378;9.688;2022-11-20T17:21:15;20.80;22.90
20610;DHT22;10463;52.378;9.688;2022-11-20T17:24:01;20.80;23.00
20610;DHT22;10463;52.378;9.688;2022-11-20T17:26:48;20.90;23.10
20610;DHT22;10463;52.378;9.688;2022-11-20T17:29:33;20.80;23.00
20610;DHT22;10463;52.378;9.688;2022-11-20T17:32:18;20.80;23.00
20610;DHT22;10463;52.378;9.688;2022-11-20T17:35:02;20.80;23.00
20610;DHT22;10463;52.378;9.688;2022-11-20T17:37:48;20.90;23.10
20610;DHT22;10463;52.378;9.688;2022-11-20T17:40:33;20.90;23.10
20610;DHT22;10463;52.378;9.688;2022-11-20T17:43:18;20.90;23.10
20610;DHT22;10463;52.378;9.688;2022-11-20T17:46:04;20.90;23.10
20610;DHT22;10463;52.378;9.688;2022-11-20T17:48:50;20.90;23.10